Terminal Aerodrome Forecast
Issued by NWS

Home | Current Version | Previous Version | Text Only | Print | Product List | Glossary On
Versions: 1 2 3 4 5 6 7 8 9 10 11 12 13 14 15 16 17 18 19 20 21 22 23 24
000
FTUS41 KCAR 081000 AAB
TAFBHB
TAF AMD
KBHB 081000Z 0810/0906 VRB03KT P6SM OVC005
     FM081200 29005KT P6SM BKN030
     FM081600 26004KT P6SM BKN035
     FM082100 25007KT P6SM BKN060
     FM090000 27011KT P6SM SCT080=

USA.gov is the U.S. government's official web portal to all federal, state and local government web resources and services.